createdAt,value
2022-08-28T00:01:24.622Z,98677.28
2022-08-28T00:03:51.124Z,98677.22
2022-08-28T00:06:17.751Z,98675.75
2022-08-28T00:08:44.504Z,98685.19
2022-08-28T00:11:11.045Z,98683.47
2022-08-28T00:13:43.957Z,98687.69
2022-08-28T00:16:11.721Z,98688.50
2022-08-28T00:18:40.197Z,98689.34
2022-08-28T00:21:08.068Z,98687.53
2022-08-28T00:23:42.502Z,98694.91
2022-08-28T00:26:09.863Z,98697.13
2022-08-28T00:28:38.058Z,98693.94
2022-08-28T00:31:04.750Z,98693.19
2022-08-28T00:33:33.766Z,98703.25
2022-08-28T00:36:01.819Z,98692.19
2022-08-28T00:38:30.774Z,98690.16
2022-08-28T00:41:01.751Z,98688.59
2022-08-28T00:43:37.862Z,98692.69
2022-08-28T00:46:11.990Z,98692.44
2022-08-28T00:48:39.515Z,98694.09
2022-08-28T00:51:07.186Z,98680.31
2022-08-28T00:53:33.819Z,98693.91
2022-08-28T00:56:09.466Z,98685.03
2022-08-28T00:58:42.325Z,98681.53
2022-08-28T01:01:09.351Z,98679.41
2022-08-28T01:03:36.561Z,98669.47
2022-08-28T01:06:03.766Z,98675.34
2022-08-28T01:08:30.812Z,98669.25
2022-08-28T01:11:01.051Z,98670.31
2022-08-28T01:13:27.792Z,98670.56
2022-08-28T01:15:56.040Z,98674.81
2022-08-28T01:18:23.396Z,98675.63
2022-08-28T01:21:27.563Z,98673.41
2022-08-28T01:24:04.858Z,98672.09
2022-08-28T01:26:31.682Z,98677.44
2022-08-28T01:28:59.446Z,98668.50
2022-08-28T01:31:27.990Z,98675.53
2022-08-28T01:33:56.115Z,98680.13
2022-08-28T01:36:22.569Z,98669.09
2022-08-28T01:38:56.136Z,98669.63
2022-08-28T01:41:22.730Z,98665.63
2022-08-28T01:43:49.245Z,98661.03
2022-08-28T01:46:15.668Z,98652.09
2022-08-28T01:48:44.476Z,98656.69
2022-08-28T01:51:12.345Z,98672.91
2022-08-28T01:53:39.877Z,98671.03
2022-08-28T01:56:11.282Z,98668.59
2022-08-28T01:58:38.623Z,98673.16
2022-08-28T02:01:13.499Z,98668.00
2022-08-28T02:03:42.970Z,98671.28
2022-08-28T02:06:10.291Z,98670.22
2022-08-28T02:08:37.152Z,98666.69
2022-08-28T02:11:07.619Z,98678.06
2022-08-28T02:13:36.536Z,98676.19
2022-08-28T02:16:07.052Z,98678.66
2022-08-28T02:18:33.574Z,98678.91
2022-08-28T02:21:00.180Z,98674.53
2022-08-28T02:23:27.216Z,98674.22
2022-08-28T02:25:53.923Z,98672.34
2022-08-28T02:28:20.391Z,98682.09
2022-08-28T02:30:46.930Z,98679.94
2022-08-28T02:33:13.331Z,98683.25
2022-08-28T02:35:39.968Z,98681.59
2022-08-28T02:38:06.472Z,98674.22
2022-08-28T02:40:32.919Z,98681.25
2022-08-28T02:42:59.735Z,98669.63
2022-08-28T02:45:31.365Z,98679.91
2022-08-28T02:47:57.851Z,98670.63
2022-08-28T02:50:24.538Z,98675.53
2022-08-28T02:52:51.935Z,98677.44
2022-08-28T02:55:19.605Z,98673.66
2022-08-28T02:57:48.734Z,98680.44
2022-08-28T03:00:21.094Z,98674.81
2022-08-28T03:02:48.750Z,98676.69
2022-08-28T03:05:17.676Z,98679.72
2022-08-28T03:07:45.080Z,98680.22
2022-08-28T03:10:11.778Z,98677.50
2022-08-28T03:12:38.837Z,98679.94
2022-08-28T03:15:06.455Z,98677.25
2022-08-28T03:17:33.206Z,98669.63
2022-08-28T03:19:59.635Z,98676.44
2022-08-28T03:22:26.272Z,98668.09
2022-08-28T03:24:52.762Z,98681.84
2022-08-28T03:27:19.270Z,98674.72
2022-08-28T03:29:45.609Z,98674.41
2022-08-28T03:32:12.131Z,98673.34
2022-08-28T03:34:38.598Z,98670.06
2022-08-28T03:37:04.965Z,98670.06
2022-08-28T03:39:31.674Z,98677.88
2022-08-28T03:41:58.354Z,98678.38
2022-08-28T03:44:24.831Z,98678.84
2022-08-28T03:46:51.346Z,98683.41
2022-08-28T03:49:18.126Z,98685.31
2022-08-28T03:51:46.094Z,98687.19
2022-08-28T03:54:13.032Z,98686.88
2022-08-28T03:56:43.369Z,98691.22
2022-08-28T03:59:10.465Z,98691.69
2022-08-28T04:01:36.964Z,98692.28
2022-08-28T04:04:04.002Z,98694.72
2022-08-28T04:06:30.697Z,98694.81
2022-08-28T04:09:00.092Z,98699.13
2022-08-28T04:11:27.334Z,98694.56
2022-08-28T04:13:53.801Z,98690.47
2022-08-28T04:16:21.690Z,98695.72
2022-08-28T04:18:49.542Z,98696.03
2022-08-28T04:21:19.432Z,98701.44
2022-08-28T04:23:47.370Z,98702.00
2022-08-28T04:26:17.121Z,98690.72
2022-08-28T04:28:43.688Z,98698.31
2022-08-28T04:31:10.590Z,98701.91
2022-08-28T04:33:38.158Z,98700.88
2022-08-28T04:36:10.387Z,98699.00
2022-08-28T04:38:43.548Z,98694.41
2022-08-28T04:41:13.497Z,98684.38
2022-08-28T04:43:40.311Z,98688.50
2022-08-28T04:46:10.973Z,98689.88
2022-08-28T04:48:39.912Z,98695.28
2022-08-28T04:51:09.200Z,98685.06
2022-08-28T04:53:38.057Z,98684.78
2022-08-28T04:56:07.385Z,98685.28
2022-08-28T04:58:34.260Z,98678.50
2022-08-28T05:01:06.954Z,98685.06
2022-08-28T05:03:33.617Z,98687.81
2022-08-28T05:06:00.269Z,98686.19
2022-08-28T05:08:26.824Z,98682.22
2022-08-28T05:10:54.872Z,98681.66
2022-08-28T05:13:22.309Z,98679.91
2022-08-28T05:15:50.951Z,98686.38
2022-08-28T05:18:19.752Z,98681.03
2022-08-28T05:20:47.975Z,98692.69
2022-08-28T05:23:16.733Z,98691.09
2022-08-28T05:25:47.925Z,98697.09
2022-08-28T05:28:16.460Z,98700.41
2022-08-28T05:30:44.050Z,98698.31
2022-08-28T05:33:13.489Z,98706.22
2022-08-28T05:35:44.642Z,98698.63
2022-08-28T05:38:13.377Z,98703.19
2022-08-28T05:40:44.432Z,98702.72
2022-08-28T05:43:12.667Z,98696.50
2022-08-28T05:45:41.389Z,98693.91
2022-08-28T05:48:11.449Z,98699.19
2022-08-28T05:50:39.086Z,98700.97
2022-08-28T05:53:09.451Z,98696.97
2022-08-28T05:55:40.104Z,98689.44
2022-08-28T05:58:06.640Z,98699.84
2022-08-28T06:00:33.006Z,98700.22
2022-08-28T06:02:59.508Z,98700.94
2022-08-28T06:05:25.871Z,98706.63
2022-08-28T06:07:54.679Z,98706.72
2022-08-28T06:10:21.054Z,98709.34
2022-08-28T06:12:47.701Z,98710.66
2022-08-28T06:15:14.154Z,98709.75
2022-08-28T06:17:40.947Z,98699.28
2022-08-28T06:20:08.037Z,98700.13
2022-08-28T06:22:34.542Z,98694.28
2022-08-28T06:25:01.018Z,98694.06
2022-08-28T06:27:30.413Z,98705.41
2022-08-28T06:29:56.917Z,98709.97
2022-08-28T06:32:23.379Z,98715.25
2022-08-28T06:34:49.897Z,98719.63
2022-08-28T06:37:16.824Z,98711.22
2022-08-28T06:39:43.407Z,98710.88
2022-08-28T06:42:09.784Z,98714.16
2022-08-28T06:44:36.854Z,98721.50
2022-08-28T06:47:03.435Z,98721.47
2022-08-28T06:49:29.942Z,98727.63
2022-08-28T06:51:56.536Z,98721.94
2022-08-28T06:54:23.745Z,98728.09
2022-08-28T06:56:51.264Z,98725.16
2022-08-28T06:59:17.955Z,98726.22
2022-08-28T07:01:44.427Z,98727.47
2022-08-28T07:04:13.217Z,98730.91
2022-08-28T07:06:42.129Z,98738.44
2022-08-28T07:09:10.269Z,98741.94
2022-08-28T07:11:37.296Z,98734.00
2022-08-28T07:14:04.151Z,98741.38
2022-08-28T07:16:39.021Z,98742.50
2022-08-28T07:19:10.726Z,98748.03
2022-08-28T07:21:39.859Z,98752.31
2022-08-28T07:24:08.471Z,98752.16
2022-08-28T07:26:35.851Z,98754.41
2022-08-28T07:29:09.357Z,98754.91
2022-08-28T07:31:36.515Z,98751.50
2022-08-28T07:34:04.075Z,98755.34
2022-08-28T07:36:30.518Z,98747.81
2022-08-28T07:38:59.674Z,98753.09
2022-08-28T07:41:28.719Z,98754.88
2022-08-28T07:43:56.304Z,98760.50
2022-08-28T07:46:22.757Z,98752.00
2022-08-28T07:48:49.252Z,98764.31
2022-08-28T07:51:15.879Z,98761.56
2022-08-28T07:53:42.362Z,98772.94
2022-08-28T07:56:09.438Z,98757.97
2022-08-28T07:58:37.432Z,98772.94
2022-08-28T08:01:04.116Z,98771.38
2022-08-28T08:03:31.788Z,98770.34
2022-08-28T08:06:04.072Z,98775.47
2022-08-28T08:08:32.191Z,98769.53
2022-08-28T08:11:01.702Z,98774.66
2022-08-28T08:13:30.233Z,98773.00
2022-08-28T08:16:28.260Z,98774.97
2022-08-28T08:18:54.895Z,98772.03
2022-08-28T08:21:21.891Z,98786.91
2022-08-28T08:23:48.673Z,98784.25
2022-08-28T08:26:25.891Z,98789.69
2022-08-28T08:28:52.506Z,98787.16
2022-08-28T08:31:25.115Z,98786.97
2022-08-28T08:33:55.795Z,98783.44
2022-08-28T08:36:24.163Z,98792.97
2022-08-28T08:38:59.142Z,98790.50
2022-08-28T08:41:34.766Z,98789.06
2022-08-28T08:44:09.696Z,98785.31
2022-08-28T08:47:05.538Z,98786.91
2022-08-28T08:49:48.370Z,98785.59
2022-08-28T08:52:29.971Z,98794.59
2022-08-28T08:55:28.668Z,98793.19
2022-08-28T08:58:23.994Z,98801.59
2022-08-28T09:01:09.000Z,98807.38
2022-08-28T09:03:50.268Z,98795.53
2022-08-28T09:06:45.121Z,98801.88
2022-08-28T09:09:34.729Z,98798.88
2022-08-28T09:12:05.570Z,98791.03
2022-08-28T09:14:59.215Z,98795.31
2022-08-28T09:17:31.319Z,98796.13
2022-08-28T09:19:58.093Z,98793.19
2022-08-28T09:22:24.486Z,98797.03
2022-08-28T09:24:52.524Z,98805.66
2022-08-28T09:27:30.769Z,98799.44
2022-08-28T09:30:07.312Z,98797.31
2022-08-28T09:32:38.743Z,98806.84
2022-08-28T09:35:07.815Z,98803.84
2022-08-28T09:37:36.488Z,98810.34
2022-08-28T09:40:30.535Z,98806.00
2022-08-28T09:43:02.361Z,98814.72
2022-08-28T09:45:30.616Z,98810.94
2022-08-28T09:47:58.456Z,98804.38
2022-08-28T09:50:31.396Z,98805.47
2022-08-28T09:53:13.618Z,98808.72
2022-08-28T09:56:12.625Z,98815.00
2022-08-28T09:58:55.483Z,98812.53
2022-08-28T10:01:44.825Z,98808.41
2022-08-28T10:04:14.749Z,98810.53
2022-08-28T10:06:44.853Z,98810.88
2022-08-28T10:09:26.805Z,98813.91
2022-08-28T10:11:59.152Z,98807.91
2022-08-28T10:14:39.504Z,98803.84
2022-08-28T10:17:16.670Z,98804.66
2022-08-28T10:20:06.466Z,98810.63
2022-08-28T10:22:53.426Z,98811.34
2022-08-28T10:25:44.358Z,98804.38
2022-08-28T10:28:42.831Z,98808.94
2022-08-28T10:31:31.545Z,98807.59
2022-08-28T10:34:07.749Z,98800.69
2022-08-28T10:36:36.650Z,98800.72
2022-08-28T10:39:21.194Z,98807.06
2022-08-28T10:41:58.211Z,98807.59
2022-08-28T10:44:36.974Z,98799.91
2022-08-28T10:47:05.603Z,98800.31
2022-08-28T10:49:37.161Z,98799.88
2022-08-28T10:52:09.223Z,98792.31
2022-08-28T10:54:54.723Z,98796.72
2022-08-28T10:57:37.284Z,98802.47
2022-08-28T11:00:16.672Z,98798.50
2022-08-28T11:02:51.403Z,98793.41
2022-08-28T11:05:24.230Z,98795.75
2022-08-28T11:07:58.534Z,98793.41
2022-08-28T11:10:50.038Z,98791.13
2022-08-28T11:13:55.709Z,98792.56
2022-08-28T11:16:24.512Z,98804.81
2022-08-28T11:19:14.458Z,98800.28
2022-08-28T11:22:03.558Z,98803.66
2022-08-28T11:24:39.031Z,98803.81
2022-08-28T11:27:31.547Z,98797.28
2022-08-28T11:30:03.372Z,98788.28
2022-08-28T11:32:51.469Z,98791.00
2022-08-28T11:35:20.868Z,98793.13
2022-08-28T11:37:52.436Z,98789.91
2022-08-28T11:40:28.020Z,98778.31
2022-08-28T11:43:13.021Z,98785.00
2022-08-28T11:45:46.635Z,98780.72
2022-08-28T11:48:22.896Z,98774.13
2022-08-28T11:50:54.480Z,98782.44
2022-08-28T11:53:29.671Z,98775.59
2022-08-28T11:56:31.046Z,98784.66
2022-08-28T11:59:37.201Z,98785.94
2022-08-28T12:02:41.178Z,98791.09
2022-08-28T12:05:16.207Z,98791.00
2022-08-28T12:07:48.472Z,98783.91
2022-08-28T12:10:24.080Z,98788.91
2022-08-28T12:12:57.678Z,98782.94
2022-08-28T12:15:30.119Z,98788.13
2022-08-28T12:18:03.938Z,98781.91
2022-08-28T12:20:39.459Z,98784.06
2022-08-28T12:23:37.091Z,98786.50
2022-08-28T12:26:27.065Z,98783.25
2022-08-28T12:29:01.136Z,98791.31
2022-08-28T12:31:56.774Z,98794.38
2022-08-28T12:34:34.553Z,98788.44
2022-08-28T12:37:02.850Z,98793.63
2022-08-28T12:39:32.058Z,98788.88
2022-08-28T12:41:59.383Z,98794.22
2022-08-28T12:44:29.556Z,98788.13
2022-08-28T12:46:56.261Z,98784.69
2022-08-28T12:49:37.418Z,98782.19
2022-08-28T12:52:25.963Z,98773.03
2022-08-28T12:54:54.873Z,98775.16
2022-08-28T12:57:24.178Z,98771.19
2022-08-28T12:59:53.570Z,98767.97
2022-08-28T13:02:33.952Z,98767.59
2022-08-28T13:05:07.408Z,98775.63
2022-08-28T13:07:46.869Z,98771.13
2022-08-28T13:10:42.536Z,98774.00
2022-08-28T13:13:18.954Z,98780.38
2022-08-28T13:15:51.683Z,98776.50
2022-08-28T13:18:39.907Z,98771.88
2022-08-28T13:21:32.522Z,98769.25
2022-08-28T13:24:21.288Z,98771.44
2022-08-28T13:26:50.337Z,98767.19
2022-08-28T13:29:19.893Z,98763.19
2022-08-28T13:31:56.642Z,98770.63
2022-08-28T13:34:25.970Z,98764.44
2022-08-28T13:36:56.425Z,98754.22
2022-08-28T13:39:22.812Z,98755.69
2022-08-28T13:41:54.335Z,98759.09
2022-08-28T13:44:33.023Z,98749.56
2022-08-28T13:47:01.983Z,98748.84
2022-08-28T13:49:28.656Z,98731.97
2022-08-28T13:51:57.979Z,98740.50
2022-08-28T13:54:27.155Z,98740.84
2022-08-28T13:56:54.766Z,98736.91
2022-08-28T13:59:21.489Z,98751.44
2022-08-28T14:01:50.611Z,98755.19
2022-08-28T14:04:17.222Z,98738.19
2022-08-28T14:06:44.550Z,98744.53
2022-08-28T14:09:11.953Z,98745.00
2022-08-28T14:11:38.725Z,98737.00
2022-08-28T14:14:05.474Z,98734.72
2022-08-28T14:16:35.452Z,98732.66
2022-08-28T14:19:06.212Z,98735.81
2022-08-28T14:21:34.370Z,98734.38
2022-08-28T14:24:01.132Z,98735.97
2022-08-28T14:26:28.546Z,98740.88
2022-08-28T14:28:55.284Z,98734.50
2022-08-28T14:31:22.032Z,98731.59
2022-08-28T14:33:53.189Z,98724.56
2022-08-28T14:36:26.723Z,98716.69
2022-08-28T14:38:55.975Z,98719.94
2022-08-28T14:41:23.927Z,98721.50
2022-08-28T14:43:51.472Z,98727.06
2022-08-28T14:46:37.628Z,98717.00
2022-08-28T14:49:08.470Z,98712.56
2022-08-28T14:51:37.644Z,98719.88
2022-08-28T14:54:06.798Z,98723.94
2022-08-28T14:56:34.332Z,98717.00
2022-08-28T14:59:04.666Z,98717.16
2022-08-28T15:01:39.542Z,98713.44
2022-08-28T15:04:10.931Z,98718.06
2022-08-28T15:06:37.576Z,98708.19
2022-08-28T15:09:04.165Z,98717.00
2022-08-28T15:11:31.003Z,98714.16
2022-08-28T15:13:57.864Z,98710.66
2022-08-28T15:16:37.241Z,98712.28
2022-08-28T15:19:05.083Z,98709.19
2022-08-28T15:21:33.069Z,98712.84
2022-08-28T15:24:01.842Z,98713.16
2022-08-28T15:26:34.579Z,98714.47
2022-08-28T15:29:01.136Z,98718.84
2022-08-28T15:31:32.634Z,98712.72
2022-08-28T15:34:03.936Z,98713.59
2022-08-28T15:36:33.840Z,98709.69
2022-08-28T15:39:03.733Z,98709.03
2022-08-28T15:41:30.763Z,98704.94
2022-08-28T15:44:00.311Z,98706.13
2022-08-28T15:46:28.262Z,98704.34
2022-08-28T15:48:55.610Z,98694.50
2022-08-28T15:51:26.096Z,98703.06
2022-08-28T15:53:54.726Z,98704.16
2022-08-28T15:56:21.200Z,98699.09
2022-08-28T15:58:48.103Z,98704.34
2022-08-28T16:01:14.520Z,98701.66
2022-08-28T16:03:41.820Z,98699.47
2022-08-28T16:06:15.130Z,98698.16
2022-08-28T16:08:42.685Z,98704.69
2022-08-28T16:11:09.432Z,98704.63
2022-08-28T16:13:35.965Z,98701.03
2022-08-28T16:16:02.542Z,98706.59
2022-08-28T16:18:29.352Z,98700.28
2022-08-28T16:20:55.777Z,98696.31
2022-08-28T16:23:22.694Z,98694.38
2022-08-28T16:25:49.231Z,98701.25
2022-08-28T16:28:15.832Z,98707.34
2022-08-28T16:30:43.901Z,98709.44
2022-08-28T16:33:11.217Z,98702.56
2022-08-28T16:35:49.447Z,98702.72
2022-08-28T16:38:21.381Z,98702.16
2022-08-28T16:40:48.338Z,98694.34
2022-08-28T16:43:15.412Z,98698.44
2022-08-28T16:45:46.165Z,98695.78
2022-08-28T16:48:14.617Z,98696.31
2022-08-28T16:50:42.654Z,98701.34
2022-08-28T16:53:09.778Z,98702.31
2022-08-28T16:55:38.271Z,98699.69
2022-08-28T16:58:05.392Z,98703.00
2022-08-28T17:00:31.816Z,98692.41
2022-08-28T17:02:59.495Z,98705.56
2022-08-28T17:05:27.026Z,98705.59
2022-08-28T17:07:53.577Z,98706.50
2022-08-28T17:10:22.402Z,98711.19
2022-08-28T17:12:49.354Z,98704.69
2022-08-28T17:15:16.353Z,98699.00
2022-08-28T17:17:43.149Z,98702.28
2022-08-28T17:20:11.546Z,98700.94
2022-08-28T17:22:38.123Z,98703.94
2022-08-28T17:25:13.822Z,98707.56
2022-08-28T17:27:41.497Z,98711.47
2022-08-28T17:30:11.895Z,98714.75
2022-08-28T17:32:38.427Z,98713.16
2022-08-28T17:35:05.844Z,98716.47
2022-08-28T17:37:32.801Z,98720.31
2022-08-28T17:39:59.424Z,98718.19
2022-08-28T17:42:25.790Z,98723.38
2022-08-28T17:44:52.472Z,98732.44
2022-08-28T17:47:19.049Z,98730.28
2022-08-28T17:49:53.877Z,98730.88
2022-08-28T17:52:20.276Z,98734.66
2022-08-28T17:54:46.775Z,98727.88
2022-08-28T17:57:20.369Z,98741.25
2022-08-28T17:59:46.814Z,98739.09
2022-08-28T18:02:13.393Z,98746.19
2022-08-28T18:04:39.880Z,98746.72
2022-08-28T18:07:06.308Z,98744.00
2022-08-28T18:09:32.803Z,98753.75
2022-08-28T18:11:59.534Z,98753.75
2022-08-28T18:14:27.407Z,98756.50
2022-08-28T18:16:54.056Z,98756.19
2022-08-28T18:19:20.792Z,98752.63
2022-08-28T18:21:47.659Z,98763.78
2022-08-28T18:24:14.096Z,98760.22
2022-08-28T18:26:42.155Z,98764.53
2022-08-28T18:29:08.808Z,98771.56
2022-08-28T18:31:35.506Z,98768.53
2022-08-28T18:34:02.313Z,98774.22
2022-08-28T18:36:29.043Z,98777.41
2022-08-28T18:38:55.622Z,98782.81
2022-08-28T18:41:26.938Z,98787.13
2022-08-28T18:44:10.061Z,98784.41
2022-08-28T18:46:36.555Z,98786.25
2022-08-28T18:49:04.083Z,98797.06
2022-08-28T18:51:30.586Z,98792.97
2022-08-28T18:53:59.417Z,98796.44
2022-08-28T18:56:28.031Z,98803.72
2022-08-28T18:58:57.990Z,98808.06
2022-08-28T19:01:24.865Z,98810.44
2022-08-28T19:03:51.835Z,98816.25
2022-08-28T19:06:22.267Z,98820.25
2022-08-28T19:08:48.613Z,98817.16
2022-08-28T19:11:17.233Z,98823.63
2022-08-28T19:13:44.029Z,98829.25
2022-08-28T19:16:15.451Z,98830.28
2022-08-28T19:18:42.215Z,98835.91
2022-08-28T19:21:16.270Z,98836.63
2022-08-28T19:23:55.608Z,98836.50
2022-08-28T19:26:27.781Z,98836.94
2022-08-28T19:28:55.248Z,98841.97
2022-08-28T19:31:26.199Z,98841.94
2022-08-28T19:33:53.470Z,98847.03
2022-08-28T19:36:20.195Z,98849.91
2022-08-28T19:38:47.066Z,98847.88
2022-08-28T19:41:14.309Z,98849.19
2022-08-28T19:43:42.912Z,98857.00
2022-08-28T19:46:18.446Z,98857.44
2022-08-28T19:48:51.083Z,98860.06
2022-08-28T19:51:23.448Z,98861.38
2022-08-28T19:53:57.286Z,98854.16
2022-08-28T19:56:27.414Z,98853.56
2022-08-28T19:58:55.487Z,98861.56
2022-08-28T20:01:24.391Z,98856.06
2022-08-28T20:03:51.080Z,98864.75
2022-08-28T20:06:18.599Z,98864.69
2022-08-28T20:08:45.087Z,98867.31
2022-08-28T20:11:17.543Z,98873.53
2022-08-28T20:13:44.108Z,98877.66
2022-08-28T20:16:11.146Z,98880.03
2022-08-28T20:18:37.569Z,98878.78
2022-08-28T20:21:04.172Z,98881.28
2022-08-28T20:23:30.719Z,98885.78
2022-08-28T20:25:57.072Z,98880.53
2022-08-28T20:28:23.569Z,98885.50
2022-08-28T20:30:50.203Z,98880.13
2022-08-28T20:33:16.606Z,98882.34
2022-08-28T20:35:43.359Z,98890.22
2022-08-28T20:38:09.747Z,98889.91
2022-08-28T20:40:36.342Z,98886.03
2022-08-28T20:43:03.104Z,98888.50
2022-08-28T20:45:29.815Z,98892.25
2022-08-28T20:47:56.542Z,98888.16
2022-08-28T20:50:25.074Z,98889.34
2022-08-28T20:52:51.662Z,98885.22
2022-08-28T20:55:18.159Z,98893.72
2022-08-28T20:57:45.849Z,98894.09
2022-08-28T21:00:12.889Z,98895.63
2022-08-28T21:02:39.897Z,98895.53
2022-08-28T21:05:06.892Z,98900.72
2022-08-28T21:07:36.336Z,98893.69
2022-08-28T21:10:08.008Z,98900.38
2022-08-28T21:12:39.203Z,98902.75
2022-08-28T21:15:08.954Z,98903.00
2022-08-28T21:17:36.107Z,98905.44
2022-08-28T21:20:07.045Z,98906.59
2022-08-28T21:22:35.297Z,98906.59
2022-08-28T21:25:07.557Z,98910.34
2022-08-28T21:27:34.669Z,98912.72
2022-08-28T21:30:01.422Z,98909.75
2022-08-28T21:32:29.372Z,98914.94
2022-08-28T21:34:56.602Z,98916.22
2022-08-28T21:37:23.778Z,98918.34
2022-08-28T21:39:50.261Z,98915.06
2022-08-28T21:42:17.001Z,98913.81
2022-08-28T21:44:44.615Z,98918.59
2022-08-28T21:47:19.752Z,98916.34
2022-08-28T21:49:48.608Z,98914.94
2022-08-28T21:52:15.063Z,98912.63
2022-08-28T21:54:41.606Z,98913.66
2022-08-28T21:57:08.256Z,98915.75
2022-08-28T21:59:37.848Z,98924.56
2022-08-28T22:02:04.749Z,98925.84
2022-08-28T22:04:33.238Z,98921.75
2022-08-28T22:07:01.036Z,98924.44
2022-08-28T22:09:28.427Z,98921.66
2022-08-28T22:11:54.881Z,98922.47
2022-08-28T22:14:21.224Z,98919.16
2022-08-28T22:16:47.893Z,98924.81
2022-08-28T22:19:14.341Z,98925.16
2022-08-28T22:21:41.102Z,98928.22
2022-08-28T22:24:09.130Z,98925.16
2022-08-28T22:26:35.980Z,98931.25
2022-08-28T22:29:02.394Z,98935.25
2022-08-28T22:31:28.928Z,98937.81
2022-08-28T22:33:55.407Z,98933.97
2022-08-28T22:36:22.287Z,98932.78
2022-08-28T22:38:53.437Z,98926.34
2022-08-28T22:41:20.714Z,98930.78
2022-08-28T22:43:51.177Z,98929.84
2022-08-28T22:46:19.476Z,98935.00
2022-08-28T22:48:46.150Z,98928.50
2022-08-28T22:51:15.098Z,98931.22
2022-08-28T22:53:42.898Z,98929.72
2022-08-28T22:56:11.218Z,98935.47
2022-08-28T22:58:39.068Z,98927.03
2022-08-28T23:01:09.675Z,98932.03
2022-08-28T23:03:37.264Z,98931.47
2022-08-28T23:06:03.929Z,98930.75
2022-08-28T23:08:33.911Z,98938.69
2022-08-28T23:11:01.041Z,98936.09
2022-08-28T23:13:28.370Z,98941.00
2022-08-28T23:15:54.742Z,98940.09
2022-08-28T23:18:21.453Z,98936.91
2022-08-28T23:20:50.535Z,98936.53
2022-08-28T23:23:17.368Z,98939.47
2022-08-28T23:25:46.146Z,98941.78
2022-08-28T23:28:13.355Z,98937.28
2022-08-28T23:30:40.295Z,98940.44
2022-08-28T23:33:10.581Z,98946.22
2022-08-28T23:35:38.594Z,98938.88
2022-08-28T23:38:05.027Z,98935.13
2022-08-28T23:40:32.813Z,98929.72
2022-08-28T23:43:01.618Z,98933.25
2022-08-28T23:45:28.609Z,98930.19
2022-08-28T23:47:55.127Z,98928.00
2022-08-28T23:50:23.130Z,98930.25
2022-08-28T23:52:50.280Z,98932.78
2022-08-28T23:55:18.945Z,98930.44
2022-08-28T23:57:45.797Z,98935.00
